createdAt,value
2023-03-02T00:00:16.076Z,1.00
2023-03-02T00:02:45.560Z,1.00
2023-03-02T00:05:14.669Z,0.80
2023-03-02T00:07:42.538Z,1.30
2023-03-02T00:10:11.631Z,1.40
2023-03-02T00:12:39.460Z,1.60
2023-03-02T00:15:08.419Z,1.70
2023-03-02T00:17:37.138Z,1.70
2023-03-02T00:20:10.996Z,1.70
2023-03-02T00:22:38.868Z,1.70
2023-03-02T00:25:07.782Z,1.70
2023-03-02T00:27:35.867Z,1.70
2023-03-02T00:30:03.757Z,1.60
2023-03-02T00:32:31.614Z,1.40
2023-03-02T00:34:59.421Z,0.90
2023-03-02T00:37:28.645Z,0.60
2023-03-02T00:39:56.563Z,0.60
2023-03-02T00:42:24.658Z,0.40
2023-03-02T00:44:53.245Z,0.50
2023-03-02T00:47:21.038Z,1.00
2023-03-02T00:49:49.390Z,1.20
2023-03-02T00:52:17.554Z,1.40
2023-03-02T00:54:46.653Z,1.00
2023-03-02T00:57:14.404Z,1.20
2023-03-02T00:59:42.234Z,1.40
2023-03-02T01:02:10.235Z,1.30
2023-03-02T01:04:41.141Z,1.30
2023-03-02T01:07:11.567Z,1.30
2023-03-02T01:09:40.361Z,1.30
2023-03-02T01:12:11.234Z,1.30
2023-03-02T01:14:40.371Z,1.10
2023-03-02T01:17:09.848Z,1.10
2023-03-02T01:19:38.164Z,1.20
2023-03-02T01:22:06.356Z,1.20
2023-03-02T01:24:34.596Z,1.30
2023-03-02T01:27:02.370Z,1.30
2023-03-02T01:29:31.519Z,1.30
2023-03-02T01:31:59.402Z,1.20
2023-03-02T01:34:27.251Z,1.20
2023-03-02T01:36:55.349Z,1.10
2023-03-02T01:39:23.508Z,1.20
2023-03-02T01:41:53.124Z,1.20
2023-03-02T01:44:44.399Z,1.00
2023-03-02T01:47:16.709Z,0.70
2023-03-02T01:49:48.760Z,0.40
2023-03-02T01:52:17.349Z,0.60
2023-03-02T01:54:49.784Z,0.60
2023-03-02T01:57:22.691Z,0.80
2023-03-02T01:59:59.479Z,0.80
2023-03-02T02:02:28.094Z,1.00
2023-03-02T02:04:57.168Z,1.10
2023-03-02T02:07:24.986Z,1.00
2023-03-02T02:09:54.216Z,1.00
2023-03-02T02:12:24.290Z,1.00
2023-03-02T02:14:53.877Z,1.10
2023-03-02T02:17:21.764Z,1.10
2023-03-02T02:20:06.063Z,1.00
2023-03-02T02:22:42.790Z,1.00
2023-03-02T02:25:20.167Z,1.00
2023-03-02T02:27:49.604Z,0.90
2023-03-02T02:30:18.939Z,1.00
2023-03-02T02:32:48.721Z,1.10
2023-03-02T02:35:21.314Z,1.10
2023-03-02T02:37:52.543Z,1.10
2023-03-02T02:40:23.770Z,1.00
2023-03-02T02:42:54.187Z,0.90
2023-03-02T02:45:25.017Z,0.90
2023-03-02T02:47:54.191Z,0.90
2023-03-02T02:50:25.053Z,0.90
2023-03-02T02:52:58.339Z,0.80
2023-03-02T02:55:27.734Z,0.80
2023-03-02T02:58:00.436Z,0.80
2023-03-02T03:00:28.854Z,0.80
2023-03-02T03:03:02.879Z,0.80
2023-03-02T03:05:30.691Z,0.80
2023-03-02T03:08:08.774Z,0.80
2023-03-02T03:10:40.340Z,0.80
2023-03-02T03:13:11.091Z,0.80
2023-03-02T03:15:39.385Z,0.80
2023-03-02T03:18:07.212Z,0.80
2023-03-02T03:20:35.098Z,0.70
2023-03-02T03:23:02.881Z,0.70
2023-03-02T03:25:31.956Z,0.70
2023-03-02T03:27:59.701Z,0.80
2023-03-02T03:30:28.794Z,0.70
2023-03-02T03:32:56.600Z,0.70
2023-03-02T03:35:24.443Z,0.70
2023-03-02T03:37:52.303Z,0.70
2023-03-02T03:40:20.256Z,0.70
2023-03-02T03:42:48.022Z,0.70
2023-03-02T03:45:15.808Z,0.70
2023-03-02T03:47:44.918Z,0.70
2023-03-02T03:50:13.089Z,0.70
2023-03-02T03:52:40.866Z,0.60
2023-03-02T03:55:09.564Z,0.60
2023-03-02T03:57:37.425Z,0.60
2023-03-02T04:00:08.910Z,0.60
2023-03-02T04:02:37.169Z,0.60
2023-03-02T04:05:07.242Z,0.60
2023-03-02T04:07:35.440Z,0.60
2023-03-02T04:10:04.274Z,0.60
2023-03-02T04:12:32.130Z,0.60
2023-03-02T04:14:59.954Z,0.60
2023-03-02T04:17:27.952Z,0.60
2023-03-02T04:19:55.882Z,0.50
2023-03-02T04:22:25.012Z,0.50
2023-03-02T04:24:53.471Z,0.50
2023-03-02T04:27:21.316Z,0.40
2023-03-02T04:29:49.051Z,0.40
2023-03-02T04:32:16.952Z,0.50
2023-03-02T04:34:44.723Z,0.50
2023-03-02T04:37:13.257Z,0.50
2023-03-02T04:39:42.387Z,0.50
2023-03-02T04:42:10.160Z,0.40
2023-03-02T04:44:37.957Z,0.20
2023-03-02T04:47:05.810Z,0.30
2023-03-02T04:49:33.630Z,0.30
2023-03-02T04:52:01.437Z,0.30
2023-03-02T04:54:29.216Z,0.40
2023-03-02T04:56:58.476Z,0.40
2023-03-02T04:59:28.148Z,0.40
2023-03-02T05:01:57.054Z,0.40
2023-03-02T05:04:25.375Z,0.40
2023-03-02T05:06:53.285Z,0.40
2023-03-02T05:09:26.974Z,0.40
2023-03-02T05:11:55.627Z,0.40
2023-03-02T05:14:25.984Z,0.40
2023-03-02T05:16:53.919Z,0.30
2023-03-02T05:19:21.703Z,0.30
2023-03-02T05:21:49.532Z,0.30
2023-03-02T05:24:17.374Z,0.30
2023-03-02T05:26:45.268Z,0.30
2023-03-02T05:29:13.023Z,0.30
2023-03-02T05:31:44.841Z,0.30
2023-03-02T05:34:16.008Z,0.30
2023-03-02T05:36:44.945Z,0.20
2023-03-02T05:39:13.157Z,0.20
2023-03-02T05:41:42.257Z,0.20
2023-03-02T05:44:11.932Z,0.20
2023-03-02T05:46:40.018Z,0.20
2023-03-02T05:49:10.450Z,0.20
2023-03-02T05:51:38.198Z,0.30
2023-03-02T05:54:06.012Z,0.30
2023-03-02T05:56:34.157Z,0.30
2023-03-02T05:59:02.157Z,0.20
2023-03-02T06:01:29.991Z,0.20
2023-03-02T06:03:57.761Z,0.20
2023-03-02T06:06:26.935Z,0.20
2023-03-02T06:08:54.698Z,0.30
2023-03-02T06:11:22.470Z,0.20
2023-03-02T06:13:50.215Z,0.20
2023-03-02T06:16:18.023Z,0.30
2023-03-02T06:18:45.808Z,0.30
2023-03-02T06:21:13.690Z,0.30
2023-03-02T06:23:42.829Z,0.20
2023-03-02T06:26:11.619Z,0.20
2023-03-02T06:28:52.000Z,0.20
2023-03-02T06:31:20.939Z,0.20
2023-03-02T06:33:48.800Z,0.30
2023-03-02T06:36:17.001Z,0.30
2023-03-02T06:38:46.632Z,0.60
2023-03-02T06:41:14.401Z,0.50
2023-03-02T06:43:42.217Z,0.60
2023-03-02T06:46:10.629Z,0.90
2023-03-02T06:48:38.534Z,1.10
2023-03-02T06:51:07.612Z,1.80
2023-03-02T06:53:35.377Z,1.70
2023-03-02T06:56:04.975Z,2.10
2023-03-02T06:58:32.702Z,2.40
2023-03-02T07:01:00.530Z,3.00
2023-03-02T07:03:28.382Z,2.60
2023-03-02T07:05:56.440Z,2.70
2023-03-02T07:08:24.229Z,3.50
2023-03-02T07:10:51.956Z,4.10
2023-03-02T07:13:21.137Z,4.20
2023-03-02T07:15:48.929Z,3.60
2023-03-02T07:18:16.723Z,3.10
2023-03-02T07:20:44.472Z,2.50
2023-03-02T07:23:12.320Z,1.90
2023-03-02T07:25:40.096Z,1.60
2023-03-02T07:28:07.893Z,2.20
2023-03-02T07:30:36.997Z,2.70
2023-03-02T07:33:04.939Z,3.40
2023-03-02T07:35:32.749Z,3.70
2023-03-02T07:38:00.559Z,3.10
2023-03-02T07:40:28.420Z,2.70
2023-03-02T07:42:56.189Z,1.90
2023-03-02T07:45:24.901Z,2.40
2023-03-02T07:47:54.051Z,3.50
2023-03-02T07:50:21.839Z,4.70
2023-03-02T07:52:49.636Z,5.30
2023-03-02T07:55:17.599Z,3.60
2023-03-02T07:57:45.330Z,2.70
2023-03-02T08:00:13.989Z,2.10
2023-03-02T08:02:42.077Z,1.80
2023-03-02T08:05:12.381Z,2.30
2023-03-02T08:07:40.756Z,2.60
2023-03-02T08:10:09.356Z,2.30
2023-03-02T08:12:37.160Z,2.20
2023-03-02T08:15:05.633Z,2.80
2023-03-02T08:17:33.398Z,2.80
2023-03-02T08:20:01.390Z,2.30
2023-03-02T08:22:30.504Z,2.30
2023-03-02T08:24:58.275Z,2.30
2023-03-02T08:27:26.121Z,2.30
2023-03-02T08:29:54.351Z,2.30
2023-03-02T08:32:22.154Z,2.30
2023-03-02T08:34:51.714Z,2.50
2023-03-02T08:37:19.961Z,3.00
2023-03-02T08:39:49.388Z,3.70
2023-03-02T08:42:17.719Z,4.50
2023-03-02T08:44:45.693Z,4.50
2023-03-02T08:47:13.480Z,4.10
2023-03-02T08:49:41.402Z,3.80
2023-03-02T08:52:09.200Z,4.50
2023-03-02T08:54:40.480Z,5.10
2023-03-02T08:57:11.851Z,5.50
2023-03-02T08:59:39.659Z,6.30
2023-03-02T09:02:07.859Z,5.80
2023-03-02T09:04:35.692Z,5.70
2023-03-02T09:07:03.482Z,5.00
2023-03-02T09:09:31.222Z,5.70
2023-03-02T09:11:59.136Z,5.70
2023-03-02T09:14:28.365Z,6.20
2023-03-02T09:16:56.160Z,6.00
2023-03-02T09:19:24.052Z,6.00
2023-03-02T09:21:51.800Z,4.90
2023-03-02T09:24:19.660Z,4.80
2023-03-02T09:26:47.478Z,4.80
2023-03-02T09:29:15.285Z,4.50
2023-03-02T09:31:44.412Z,4.60
2023-03-02T09:34:12.211Z,4.70
2023-03-02T09:36:40.027Z,4.50
2023-03-02T09:39:12.424Z,4.20
2023-03-02T09:42:09.967Z,4.80
2023-03-02T09:45:06.481Z,4.80
2023-03-02T09:47:44.284Z,5.10
2023-03-02T09:50:25.404Z,5.40
2023-03-02T09:53:06.984Z,5.40
2023-03-02T09:55:37.105Z,5.30
2023-03-02T09:58:07.421Z,5.50
2023-03-02T10:00:38.022Z,5.80
2023-03-02T10:03:16.965Z,5.70
2023-03-02T10:05:47.755Z,6.00
2023-03-02T10:08:20.282Z,5.80
2023-03-02T10:10:54.349Z,5.80
2023-03-02T10:13:27.325Z,6.00
2023-03-02T10:16:10.654Z,6.00
2023-03-02T10:18:44.918Z,6.50
2023-03-02T10:21:21.423Z,6.90
2023-03-02T10:23:57.174Z,6.70
2023-03-02T10:26:37.900Z,6.60
2023-03-02T10:29:26.908Z,7.00
2023-03-02T10:32:00.190Z,6.90
2023-03-02T10:34:31.604Z,6.90
2023-03-02T10:36:59.847Z,7.10
2023-03-02T10:39:27.602Z,6.80
2023-03-02T10:42:00.283Z,6.70
2023-03-02T10:44:32.011Z,6.90
2023-03-02T10:46:59.970Z,6.60
2023-03-02T10:49:31.766Z,6.50
2023-03-02T10:52:02.440Z,6.60
2023-03-02T10:54:31.539Z,6.80
2023-03-02T10:57:01.896Z,6.90
2023-03-02T10:59:40.214Z,7.10
2023-03-02T11:02:16.446Z,6.90
2023-03-02T11:04:46.462Z,7.10
2023-03-02T11:07:18.323Z,7.30
2023-03-02T11:09:57.643Z,6.80
2023-03-02T11:12:25.650Z,7.50
2023-03-02T11:15:03.559Z,7.50
2023-03-02T11:17:34.309Z,7.50
2023-03-02T11:20:04.531Z,7.80
2023-03-02T11:22:39.264Z,8.40
2023-03-02T11:25:13.502Z,8.00
2023-03-02T11:27:44.643Z,8.50
2023-03-02T11:30:16.887Z,8.00
2023-03-02T11:32:51.912Z,7.70
2023-03-02T11:35:30.541Z,7.20
2023-03-02T11:38:03.547Z,8.10
2023-03-02T11:40:33.855Z,8.00
2023-03-02T11:43:04.703Z,7.60
2023-03-02T11:45:35.910Z,7.60
2023-03-02T11:48:07.338Z,7.60
2023-03-02T11:50:46.785Z,7.70
2023-03-02T11:53:18.755Z,7.90
2023-03-02T11:55:49.564Z,8.60
2023-03-02T11:58:20.644Z,8.00
2023-03-02T12:00:50.244Z,7.90
2023-03-02T12:03:22.779Z,7.90
2023-03-02T12:06:06.057Z,7.90
2023-03-02T12:08:41.597Z,8.00
2023-03-02T12:11:33.969Z,8.00
2023-03-02T12:14:03.613Z,8.00
2023-03-02T12:16:38.652Z,8.20
2023-03-02T12:19:15.022Z,9.10
2023-03-02T12:21:56.469Z,8.70
2023-03-02T12:24:27.251Z,8.40
2023-03-02T12:27:04.019Z,8.40
2023-03-02T12:29:41.028Z,8.50
2023-03-02T12:32:22.510Z,8.90
2023-03-02T12:34:55.688Z,9.30
2023-03-02T12:37:27.062Z,9.40
2023-03-02T12:40:22.905Z,9.10
2023-03-02T12:43:13.318Z,9.00
2023-03-02T12:45:58.848Z,8.90
2023-03-02T12:48:31.155Z,9.30
2023-03-02T12:51:02.599Z,9.00
2023-03-02T12:53:32.031Z,9.10
2023-03-02T12:55:59.835Z,9.00
2023-03-02T12:58:29.996Z,9.00
2023-03-02T13:01:01.913Z,8.90
2023-03-02T13:03:32.152Z,9.10
2023-03-02T13:06:04.081Z,9.10
2023-03-02T13:08:33.672Z,9.00
2023-03-02T13:11:02.961Z,9.00
2023-03-02T13:13:37.862Z,9.00
2023-03-02T13:16:08.106Z,9.10
2023-03-02T13:18:39.552Z,9.20
2023-03-02T13:21:11.448Z,9.70
2023-03-02T13:23:46.395Z,9.40
2023-03-02T13:26:26.302Z,9.40
2023-03-02T13:29:02.680Z,9.60
2023-03-02T13:31:31.873Z,9.30
2023-03-02T13:34:00.192Z,9.30
2023-03-02T13:36:30.937Z,9.30
2023-03-02T13:39:01.142Z,9.20
2023-03-02T13:41:30.941Z,9.20
2023-03-02T13:43:59.361Z,9.20
2023-03-02T13:46:36.512Z,9.10
2023-03-02T13:49:11.338Z,9.10
2023-03-02T13:51:41.867Z,9.50
2023-03-02T13:54:21.531Z,9.90
2023-03-02T13:56:52.019Z,9.70
2023-03-02T13:59:22.024Z,9.50
2023-03-02T14:01:50.273Z,9.60
2023-03-02T14:04:23.157Z,9.50
2023-03-02T14:06:51.537Z,9.50
2023-03-02T14:09:21.180Z,9.50
2023-03-02T14:11:51.544Z,9.50
2023-03-02T14:14:22.446Z,9.60
2023-03-02T14:16:50.695Z,9.50
2023-03-02T14:19:20.036Z,9.50
2023-03-02T14:21:47.870Z,9.50
2023-03-02T14:24:15.749Z,9.50
2023-03-02T14:26:47.297Z,9.50
2023-03-02T14:29:22.488Z,9.50
2023-03-02T14:31:50.378Z,9.50
2023-03-02T14:34:18.547Z,9.40
2023-03-02T14:36:49.457Z,9.70
2023-03-02T14:39:22.728Z,9.70
2023-03-02T14:41:54.061Z,9.70
2023-03-02T14:44:22.773Z,9.70
2023-03-02T14:46:50.776Z,9.60
2023-03-02T14:49:18.524Z,9.60
2023-03-02T14:52:00.240Z,9.40
2023-03-02T14:54:28.439Z,9.40
2023-03-02T14:56:57.838Z,9.40
2023-03-02T14:59:25.584Z,9.70
2023-03-02T15:01:53.398Z,9.70
2023-03-02T15:04:22.009Z,9.80
2023-03-02T15:06:49.838Z,9.60
2023-03-02T15:09:17.646Z,9.80
2023-03-02T15:11:45.587Z,9.90
2023-03-02T15:14:14.689Z,9.80
2023-03-02T15:16:42.726Z,9.70
2023-03-02T15:19:10.893Z,9.60
2023-03-02T15:21:41.496Z,9.40
2023-03-02T15:24:09.475Z,9.40
2023-03-02T15:26:38.960Z,9.30
2023-03-02T15:29:06.768Z,9.20
2023-03-02T15:31:36.227Z,9.10
2023-03-02T15:34:04.349Z,9.00
2023-03-02T15:36:32.117Z,9.00
2023-03-02T15:39:00.334Z,8.90
2023-03-02T15:41:28.164Z,8.80
2023-03-02T15:43:56.553Z,8.80
2023-03-02T15:46:25.124Z,8.80
2023-03-02T15:48:54.614Z,8.70
2023-03-02T15:51:22.547Z,8.70
2023-03-02T15:53:50.350Z,8.70
2023-03-02T15:56:18.427Z,8.60
2023-03-02T15:58:50.445Z,8.60
2023-03-02T16:01:18.333Z,8.50
2023-03-02T16:03:46.989Z,8.50
2023-03-02T16:06:16.622Z,8.40
2023-03-02T16:08:44.421Z,8.20
2023-03-02T16:11:13.197Z,8.20
2023-03-02T16:13:41.014Z,8.10
2023-03-02T16:16:10.276Z,8.00
2023-03-02T16:18:38.052Z,8.00
2023-03-02T16:21:06.049Z,7.90
2023-03-02T16:23:35.146Z,7.80
2023-03-02T16:26:08.787Z,7.80
2023-03-02T16:28:36.871Z,7.70
2023-03-02T16:31:05.138Z,7.70
2023-03-02T16:33:32.943Z,7.60
2023-03-02T16:36:00.752Z,7.50
2023-03-02T16:38:28.661Z,7.50
2023-03-02T16:40:57.785Z,7.60
2023-03-02T16:43:25.967Z,7.80
2023-03-02T16:45:53.957Z,7.80
2023-03-02T16:48:22.090Z,7.90
2023-03-02T16:50:56.601Z,8.00
2023-03-02T16:53:24.472Z,8.00
2023-03-02T16:55:52.275Z,8.10
2023-03-02T16:58:21.421Z,8.10
2023-03-02T17:00:49.197Z,8.10
2023-03-02T17:03:17.423Z,8.10
2023-03-02T17:05:45.343Z,8.10
2023-03-02T17:08:14.892Z,8.00
2023-03-02T17:10:43.218Z,8.10
2023-03-02T17:13:12.019Z,8.10
2023-03-02T17:15:41.224Z,8.10
2023-03-02T17:18:09.067Z,8.00
2023-03-02T17:20:37.366Z,8.00
2023-03-02T17:23:05.840Z,8.00
2023-03-02T17:25:33.617Z,8.00
2023-03-02T17:28:01.440Z,7.90
2023-03-02T17:30:29.266Z,7.80
2023-03-02T17:32:58.398Z,7.80
2023-03-02T17:35:26.164Z,7.80
2023-03-02T17:37:53.955Z,7.80
2023-03-02T17:40:21.973Z,7.70
2023-03-02T17:42:49.734Z,7.60
2023-03-02T17:45:19.286Z,7.70
2023-03-02T17:47:47.311Z,7.60
2023-03-02T17:50:17.070Z,7.60
2023-03-02T17:52:45.723Z,7.60
2023-03-02T17:55:13.650Z,7.60
2023-03-02T17:57:41.593Z,7.50
2023-03-02T18:00:14.905Z,7.50
2023-03-02T18:02:42.854Z,7.40
2023-03-02T18:05:11.860Z,7.40
2023-03-02T18:07:41.140Z,7.30
2023-03-02T18:10:11.112Z,7.40
2023-03-02T18:12:38.931Z,7.40
2023-03-02T18:15:07.925Z,7.30
2023-03-02T18:17:35.789Z,7.20
2023-03-02T18:20:04.419Z,7.20
2023-03-02T18:22:32.252Z,7.20
2023-03-02T18:25:01.413Z,7.20
2023-03-02T18:27:29.287Z,7.20
2023-03-02T18:29:57.122Z,7.00
2023-03-02T18:32:25.043Z,7.10
2023-03-02T18:34:52.866Z,7.00
2023-03-02T18:37:20.798Z,7.10
2023-03-02T18:39:48.709Z,6.90
2023-03-02T18:42:17.913Z,6.80
2023-03-02T18:44:45.851Z,6.90
2023-03-02T18:47:17.793Z,6.80
2023-03-02T18:49:45.792Z,6.80
2023-03-02T18:52:16.465Z,6.80
2023-03-02T18:54:44.378Z,6.80
2023-03-02T18:57:12.123Z,6.70
2023-03-02T18:59:41.400Z,6.80
2023-03-02T19:02:13.601Z,6.60
2023-03-02T19:04:41.479Z,6.60
2023-03-02T19:07:09.398Z,6.60
2023-03-02T19:09:37.170Z,6.60
2023-03-02T19:12:05.676Z,6.50
2023-03-02T19:14:33.437Z,6.50
2023-03-02T19:17:02.658Z,6.50
2023-03-02T19:19:31.035Z,6.50
2023-03-02T19:21:58.809Z,6.40
2023-03-02T19:24:26.584Z,6.40
2023-03-02T19:26:54.848Z,6.30
2023-03-02T19:29:23.193Z,6.30
2023-03-02T19:31:50.959Z,6.30
2023-03-02T19:34:20.154Z,6.20
2023-03-02T19:36:47.942Z,6.20
2023-03-02T19:39:15.685Z,6.20
2023-03-02T19:41:43.460Z,6.20
2023-03-02T19:44:12.455Z,6.10
2023-03-02T19:46:40.512Z,6.00
2023-03-02T19:49:08.283Z,6.10
2023-03-02T19:51:37.387Z,6.00
2023-03-02T19:54:05.495Z,6.00
2023-03-02T19:56:35.081Z,5.90
2023-03-02T19:59:03.171Z,6.00
2023-03-02T20:01:31.389Z,5.80
2023-03-02T20:03:59.933Z,5.90
2023-03-02T20:06:30.974Z,5.80
2023-03-02T20:09:02.372Z,5.80
2023-03-02T20:11:31.198Z,5.80
2023-03-02T20:14:01.992Z,5.70
2023-03-02T20:16:30.447Z,5.70
2023-03-02T20:18:58.412Z,5.70
2023-03-02T20:21:26.688Z,5.70
2023-03-02T20:23:54.943Z,5.60
2023-03-02T20:26:25.368Z,5.60
2023-03-02T20:28:55.352Z,5.60
2023-03-02T20:31:24.738Z,5.50
2023-03-02T20:33:55.603Z,5.50
2023-03-02T20:36:29.464Z,5.50
2023-03-02T20:39:00.122Z,5.50
2023-03-02T20:41:30.150Z,5.40
2023-03-02T20:43:58.261Z,5.40
2023-03-02T20:46:30.689Z,5.30
2023-03-02T20:48:58.822Z,5.30
2023-03-02T20:51:27.839Z,5.30
2023-03-02T20:53:55.702Z,5.30
2023-03-02T20:56:24.303Z,5.30
2023-03-02T20:58:53.485Z,5.30
2023-03-02T21:01:23.483Z,5.30
2023-03-02T21:03:52.687Z,5.20
2023-03-02T21:06:20.504Z,5.10
2023-03-02T21:08:48.315Z,5.10
2023-03-02T21:11:18.704Z,5.00
2023-03-02T21:13:48.150Z,5.00
2023-03-02T21:16:20.025Z,5.00
2023-03-02T21:18:47.959Z,5.00
2023-03-02T21:21:16.476Z,5.00
2023-03-02T21:23:44.230Z,5.00
2023-03-02T21:26:13.351Z,4.90
2023-03-02T21:28:43.916Z,4.90
2023-03-02T21:31:11.944Z,4.90
2023-03-02T21:33:41.464Z,4.80
2023-03-02T21:36:13.652Z,4.80
2023-03-02T21:38:41.396Z,4.80
2023-03-02T21:41:09.232Z,4.70
2023-03-02T21:43:37.287Z,4.70
2023-03-02T21:46:05.335Z,4.70
2023-03-02T21:48:33.194Z,4.70
2023-03-02T21:51:02.339Z,4.60
2023-03-02T21:53:30.398Z,4.60
2023-03-02T21:55:58.184Z,4.50
2023-03-02T21:58:26.011Z,4.50
2023-03-02T22:00:53.735Z,4.50
2023-03-02T22:03:21.696Z,4.50
2023-03-02T22:05:49.465Z,4.50
2023-03-02T22:08:20.628Z,4.50
2023-03-02T22:10:50.180Z,4.40
2023-03-02T22:13:23.612Z,4.40
2023-03-02T22:15:57.288Z,4.30
2023-03-02T22:18:26.974Z,4.30
2023-03-02T22:20:54.709Z,4.30
2023-03-02T22:23:27.418Z,4.30
2023-03-02T22:26:00.901Z,4.20
2023-03-02T22:28:29.275Z,4.30
2023-03-02T22:31:00.789Z,4.20
2023-03-02T22:33:30.426Z,4.20
2023-03-02T22:36:03.987Z,4.20
2023-03-02T22:38:33.182Z,4.10
2023-03-02T22:41:00.947Z,4.10
2023-03-02T22:43:30.467Z,4.10
2023-03-02T22:46:00.444Z,4.10
2023-03-02T22:48:30.041Z,4.10
2023-03-02T22:50:57.792Z,4.00
2023-03-02T22:53:28.631Z,4.00
2023-03-02T22:56:00.136Z,4.00
2023-03-02T23:01:04.385Z,3.90
2023-03-02T23:03:39.361Z,3.90
2023-03-02T23:06:28.628Z,3.90
2023-03-02T23:08:58.462Z,3.90
2023-03-02T23:11:28.819Z,3.80
2023-03-02T23:13:57.082Z,3.70
2023-03-02T23:16:26.920Z,3.70
2023-03-02T23:18:56.777Z,3.70
2023-03-02T23:21:28.510Z,3.70
2023-03-02T23:23:56.686Z,3.70
2023-03-02T23:26:24.491Z,3.70
2023-03-02T23:28:53.598Z,3.60
2023-03-02T23:31:21.454Z,3.60
2023-03-02T23:33:49.379Z,3.60
2023-03-02T23:36:17.543Z,3.60
2023-03-02T23:38:45.309Z,3.60
2023-03-02T23:41:13.087Z,3.60
2023-03-02T23:43:40.984Z,3.50
2023-03-02T23:46:13.816Z,3.50
2023-03-02T23:48:41.879Z,3.50
2023-03-02T23:51:09.813Z,3.40
2023-03-02T23:53:37.582Z,3.50
2023-03-02T23:56:05.846Z,3.40
2023-03-02T23:58:33.720Z,3.40
